CheckWX is a tool to help pilots better visualize weather data.  It is not intended as a substitute for an official pre-flight weather briefing.

12:47:33 UTC

ENQR METAR
Snorre B Oilp
Snorre B Oilp, Norway
Current

28 mins ago

ENQR 171220Z AUTO 19010KT 9999NDV FEW021/// BKN033/// 07/03 Q1012 W///S4
Observed
Nov-17 @ 12:20 UTC
Wind
  • 190° at 10 KTS
Visibility
Cloud Levels
  • Few at 2,100' AGL
  • Broken at 3,300' AGL
Temperature
C / 45°F
Dewpoint
C / 37°F
Humidity
76%
Altimeter
29.88" Hg
Pressure
1011.92 hPa
Previous

58 mins ago

ENQR 171150Z AUTO 21010KT 9999NDV OVC021/// 07/03 Q1012 W///S4
Observed
Nov-17 @ 11:50 UTC
Wind
  • 210° at 10 KTS
Visibility
Cloud Levels
  • Overcast at 2,100' AGL
Temperature
C / 45°F
Dewpoint
C / 37°F
Humidity
76%
Altimeter
29.88" Hg
Pressure
1011.92 hPa
Previous

1 hour ago

ENQR 171120Z AUTO 18007KT 9999NDV BKN024/// 07/02 Q1011 W///S4
Observed
Nov-17 @ 11:20 UTC
Wind
  • 180° at 7 KTS
Visibility
Cloud Levels
  • Broken at 2,400' AGL
Temperature
C / 45°F
Dewpoint
C / 36°F
Humidity
71%
Altimeter
29.85" Hg
Pressure
1010.92 hPa